sensor_id;sensor_type;location;lat;lon;timestamp;pressure;altitude;pressure_sealevel;temperature;humidity
64243;BME280;50573;51.512;5.386;2022-09-03T00:01:23;100965.00;;;15.57;55.95
64243;BME280;50573;51.512;5.386;2022-09-03T00:11:30;100964.63;;;15.37;56.35
64243;BME280;50573;51.512;5.386;2022-09-03T00:21:40;100961.50;;;15.21;56.64
64243;BME280;50573;51.512;5.386;2022-09-03T00:31:48;100956.56;;;15.10;57.50
64243;BME280;50573;51.512;5.386;2022-09-03T00:42:07;100961.13;;;14.99;58.18
64243;BME280;50573;51.512;5.386;2022-09-03T00:52:21;100961.41;;;14.86;58.63
64243;BME280;50573;51.512;5.386;2022-09-03T01:02:43;100956.38;;;14.77;58.82
64243;BME280;50573;51.512;5.386;2022-09-03T01:12:54;100954.91;;;14.65;58.97
64243;BME280;50573;51.512;5.386;2022-09-03T01:23:30;100946.47;;;14.52;59.95
64243;BME280;50573;51.512;5.386;2022-09-03T01:33:46;100954.59;;;14.35;60.22
64243;BME280;50573;51.512;5.386;2022-09-03T01:43:58;100947.84;;;14.27;60.97
64243;BME280;50573;51.512;5.386;2022-09-03T01:54:29;100952.41;;;14.15;61.99
64243;BME280;50573;51.512;5.386;2022-09-03T02:04:38;100963.78;;;14.10;61.18
64243;BME280;50573;51.512;5.386;2022-09-03T02:14:43;100951.72;;;14.05;61.70
64243;BME280;50573;51.512;5.386;2022-09-03T02:24:46;100938.81;;;14.01;61.81
64243;BME280;50573;51.512;5.386;2022-09-03T02:34:50;100940.69;;;13.91;62.27
64243;BME280;50573;51.512;5.386;2022-09-03T02:44:58;100944.28;;;13.84;62.40
64243;BME280;50573;51.512;5.386;2022-09-03T02:55:04;100948.59;;;13.85;62.33
64243;BME280;50573;51.512;5.386;2022-09-03T03:05:08;100932.19;;;13.83;62.40
64243;BME280;50573;51.512;5.386;2022-09-03T03:15:16;100941.72;;;13.82;62.51
64243;BME280;50573;51.512;5.386;2022-09-03T03:25:20;100941.00;;;13.74;62.76
64243;BME280;50573;51.512;5.386;2022-09-03T03:35:24;100942.03;;;13.65;62.91
64243;BME280;50573;51.512;5.386;2022-09-03T03:45:27;100939.63;;;13.55;63.45
64243;BME280;50573;51.512;5.386;2022-09-03T03:55:31;100940.53;;;13.50;63.78
64243;BME280;50573;51.512;5.386;2022-09-03T04:05:35;100942.19;;;13.56;63.54
64243;BME280;50573;51.512;5.386;2022-09-03T04:15:50;100946.56;;;13.52;63.70
64243;BME280;50573;51.512;5.386;2022-09-03T04:25:53;100928.41;;;13.51;63.18
64243;BME280;50573;51.512;5.386;2022-09-03T04:36:06;100933.50;;;13.57;63.06
64243;BME280;50573;51.512;5.386;2022-09-03T04:46:11;100933.59;;;13.51;63.01
64243;BME280;50573;51.512;5.386;2022-09-03T04:56:21;100947.53;;;13.45;64.04
64243;BME280;50573;51.512;5.386;2022-09-03T05:06:26;100945.84;;;13.44;64.73
64243;BME280;50573;51.512;5.386;2022-09-03T05:16:30;100944.94;;;13.45;64.13
64243;BME280;50573;51.512;5.386;2022-09-03T05:26:39;100934.31;;;13.61;63.92
64243;BME280;50573;51.512;5.386;2022-09-03T05:36:51;100940.25;;;13.67;64.61
64243;BME280;50573;51.512;5.386;2022-09-03T05:46:55;100937.47;;;13.78;63.97
64243;BME280;50573;51.512;5.386;2022-09-03T05:57:06;100943.91;;;14.05;63.09
64243;BME280;50573;51.512;5.386;2022-09-03T06:07:12;100942.13;;;14.53;61.58
64243;BME280;50573;51.512;5.386;2022-09-03T06:17:20;100935.06;;;15.00;60.48
64243;BME280;50573;51.512;5.386;2022-09-03T06:27:28;100941.88;;;15.43;59.39
64243;BME280;50573;51.512;5.386;2022-09-03T06:37:40;100949.50;;;15.87;58.26
64243;BME280;50573;51.512;5.386;2022-09-03T06:47:44;100940.53;;;16.30;56.77
64243;BME280;50573;51.512;5.386;2022-09-03T06:57:54;100945.28;;;16.77;55.81
64243;BME280;50573;51.512;5.386;2022-09-03T07:07:58;100941.41;;;17.19;54.13
64243;BME280;50573;51.512;5.386;2022-09-03T07:18:03;100953.66;;;17.44;53.64
64243;BME280;50573;51.512;5.386;2022-09-03T07:28:18;100941.41;;;17.72;52.82
64243;BME280;50573;51.512;5.386;2022-09-03T07:38:25;100945.69;;;17.75;52.08
64243;BME280;50573;51.512;5.386;2022-09-03T07:48:33;100948.59;;;17.93;52.09
64243;BME280;50573;51.512;5.386;2022-09-03T07:58:42;100948.34;;;18.49;52.82
64243;BME280;50573;51.512;5.386;2022-09-03T08:08:55;100956.28;;;19.16;50.25
64243;BME280;50573;51.512;5.386;2022-09-03T08:19:10;100953.63;;;19.60;48.87
64243;BME280;50573;51.512;5.386;2022-09-03T08:29:14;100958.66;;;20.07;47.63
64243;BME280;50573;51.512;5.386;2022-09-03T08:39:19;100954.66;;;20.38;46.59
64243;BME280;50573;51.512;5.386;2022-09-03T08:49:30;100963.16;;;20.83;45.03
64243;BME280;50573;51.512;5.386;2022-09-03T08:59:36;100956.72;;;21.27;44.81
64243;BME280;50573;51.512;5.386;2022-09-03T09:09:45;100961.09;;;21.45;43.79
64243;BME280;50573;51.512;5.386;2022-09-03T09:19:57;100956.16;;;21.91;42.52
64243;BME280;50573;51.512;5.386;2022-09-03T09:30:06;100965.16;;;22.21;41.00
64243;BME280;50573;51.512;5.386;2022-09-03T09:40:24;100952.28;;;22.66;40.62
64243;BME280;50573;51.512;5.386;2022-09-03T09:50:28;100962.13;;;22.78;40.48
64243;BME280;50573;51.512;5.386;2022-09-03T10:00:32;100963.00;;;23.10;38.47
64243;BME280;50573;51.512;5.386;2022-09-03T10:10:41;100953.72;;;23.19;39.75
64243;BME280;50573;51.512;5.386;2022-09-03T10:20:52;100952.69;;;23.52;38.95
64243;BME280;50573;51.512;5.386;2022-09-03T10:31:10;100933.31;;;23.98;38.29
64243;BME280;50573;51.512;5.386;2022-09-03T10:41:30;100934.63;;;23.91;37.71
64243;BME280;50573;51.512;5.386;2022-09-03T10:51:40;100933.81;;;24.05;37.79
64243;BME280;50573;51.512;5.386;2022-09-03T11:01:57;100933.88;;;24.17;38.56
64243;BME280;50573;51.512;5.386;2022-09-03T11:12:06;100941.13;;;24.43;37.30
64243;BME280;50573;51.512;5.386;2022-09-03T11:22:13;100933.13;;;24.44;36.83
64243;BME280;50573;51.512;5.386;2022-09-03T11:32:25;100928.22;;;24.67;36.23
64243;BME280;50573;51.512;5.386;2022-09-03T11:42:35;100914.88;;;24.96;35.95
64243;BME280;50573;51.512;5.386;2022-09-03T11:52:39;100914.69;;;25.26;35.55
64243;BME280;50573;51.512;5.386;2022-09-03T12:02:46;100911.69;;;25.58;35.43
64243;BME280;50573;51.512;5.386;2022-09-03T12:12:58;100918.94;;;26.07;34.74
64243;BME280;50573;51.512;5.386;2022-09-03T12:23:05;100913.13;;;26.52;34.41
64243;BME280;50573;51.512;5.386;2022-09-03T12:33:16;100913.38;;;26.36;33.53
64243;BME280;50573;51.512;5.386;2022-09-03T12:43:26;100908.59;;;26.41;32.96
64243;BME280;50573;51.512;5.386;2022-09-03T12:53:41;100908.09;;;26.73;31.43
64243;BME280;50573;51.512;5.386;2022-09-03T13:03:55;100895.91;;;26.95;31.88
64243;BME280;50573;51.512;5.386;2022-09-03T13:14:04;100901.06;;;27.21;32.01
64243;BME280;50573;51.512;5.386;2022-09-03T13:24:27;100891.81;;;27.26;30.62
64243;BME280;50573;51.512;5.386;2022-09-03T13:34:44;100878.47;;;27.04;31.26
64243;BME280;50573;51.512;5.386;2022-09-03T13:44:55;100882.44;;;27.33;29.81
64243;BME280;50573;51.512;5.386;2022-09-03T13:55:08;100884.50;;;27.06;30.50
64243;BME280;50573;51.512;5.386;2022-09-03T14:05:18;100890.22;;;27.48;30.59
64243;BME280;50573;51.512;5.386;2022-09-03T14:15:29;100880.91;;;27.54;29.88
64243;BME280;50573;51.512;5.386;2022-09-03T14:25:36;100895.19;;;27.28;30.64
64243;BME280;50573;51.512;5.386;2022-09-03T14:35:58;100891.44;;;27.66;29.24
64243;BME280;50573;51.512;5.386;2022-09-03T14:46:15;100880.25;;;28.19;30.23
64243;BME280;50573;51.512;5.386;2022-09-03T14:56:27;100874.81;;;29.08;29.88
64243;BME280;50573;51.512;5.386;2022-09-03T15:06:55;100860.97;;;29.78;28.30
64243;BME280;50573;51.512;5.386;2022-09-03T15:17:19;100863.81;;;29.55;28.53
64243;BME280;50573;51.512;5.386;2022-09-03T15:27:40;100868.41;;;29.53;28.56
64243;BME280;50573;51.512;5.386;2022-09-03T15:37:51;100873.50;;;29.35;28.09
64243;BME280;50573;51.512;5.386;2022-09-03T15:48:00;100884.50;;;28.77;29.42
64243;BME280;50573;51.512;5.386;2022-09-03T15:58:25;100887.38;;;28.08;31.46
64243;BME280;50573;51.512;5.386;2022-09-03T16:08:42;100887.78;;;27.21;32.29
64243;BME280;50573;51.512;5.386;2022-09-03T16:19:03;100889.56;;;26.60;32.66
64243;BME280;50573;51.512;5.386;2022-09-03T16:29:11;100891.19;;;26.13;35.44
64243;BME280;50573;51.512;5.386;2022-09-03T16:39:25;100902.72;;;25.73;36.88
64243;BME280;50573;51.512;5.386;2022-09-03T16:49:43;100899.09;;;25.62;37.44
64243;BME280;50573;51.512;5.386;2022-09-03T17:00:03;100908.16;;;25.45;38.83
64243;BME280;50573;51.512;5.386;2022-09-03T17:10:19;100912.38;;;25.34;38.71
64243;BME280;50573;51.512;5.386;2022-09-03T17:20:37;100918.69;;;25.19;39.39
64243;BME280;50573;51.512;5.386;2022-09-03T17:30:57;100932.47;;;24.97;40.18
64243;BME280;50573;51.512;5.386;2022-09-03T17:41:13;100938.00;;;24.65;40.82
64243;BME280;50573;51.512;5.386;2022-09-03T17:51:30;100948.13;;;24.29;42.53
64243;BME280;50573;51.512;5.386;2022-09-03T18:01:36;100974.91;;;23.94;45.49
64243;BME280;50573;51.512;5.386;2022-09-03T18:11:48;100983.75;;;23.63;46.43
64243;BME280;50573;51.512;5.386;2022-09-03T18:21:51;101006.97;;;23.26;48.46
64243;BME280;50573;51.512;5.386;2022-09-03T18:32:13;101023.19;;;22.86;48.74
64243;BME280;50573;51.512;5.386;2022-09-03T18:42:43;101030.19;;;22.54;50.10
64243;BME280;50573;51.512;5.386;2022-09-03T18:53:11;101032.94;;;22.35;51.14
64243;BME280;50573;51.512;5.386;2022-09-03T19:03:40;101040.75;;;22.19;52.79
64243;BME280;50573;51.512;5.386;2022-09-03T19:14:15;101058.16;;;22.21;52.80
64243;BME280;50573;51.512;5.386;2022-09-03T19:24:39;101072.13;;;22.06;53.21
64243;BME280;50573;51.512;5.386;2022-09-03T19:35:13;101086.81;;;21.75;54.49
64243;BME280;50573;51.512;5.386;2022-09-03T19:45:44;101086.75;;;21.38;56.29
64243;BME280;50573;51.512;5.386;2022-09-03T19:56:18;101093.84;;;20.98;57.42
64243;BME280;50573;51.512;5.386;2022-09-03T20:06:44;101111.16;;;20.63;58.65
64243;BME280;50573;51.512;5.386;2022-09-03T20:17:14;101120.19;;;20.35;59.82
64243;BME280;50573;51.512;5.386;2022-09-03T20:27:27;101115.53;;;20.21;60.90
64243;BME280;50573;51.512;5.386;2022-09-03T20:37:38;101124.59;;;20.14;61.92
64243;BME280;50573;51.512;5.386;2022-09-03T20:48:00;101146.03;;;20.03;63.17
64243;BME280;50573;51.512;5.386;2022-09-03T20:58:10;101143.47;;;19.79;64.51
64243;BME280;50573;51.512;5.386;2022-09-03T21:18:53;101150.50;;;19.31;66.54
64243;BME280;50573;51.512;5.386;2022-09-03T21:29:05;101150.06;;;19.20;67.32
64243;BME280;50573;51.512;5.386;2022-09-03T21:39:14;101160.06;;;19.09;67.38
64243;BME280;50573;51.512;5.386;2022-09-03T21:49:24;101157.25;;;18.90;67.89
64243;BME280;50573;51.512;5.386;2022-09-03T21:59:56;101169.91;;;18.75;69.28
64243;BME280;50573;51.512;5.386;2022-09-03T22:10:02;101183.50;;;18.61;69.49
64243;BME280;50573;51.512;5.386;2022-09-03T22:20:11;101194.56;;;18.45;70.29
64243;BME280;50573;51.512;5.386;2022-09-03T22:30:17;101199.47;;;18.27;71.08
64243;BME280;50573;51.512;5.386;2022-09-03T22:40:32;101201.06;;;18.31;73.71
64243;BME280;50573;51.512;5.386;2022-09-03T22:50:45;101202.44;;;18.43;73.93
64243;BME280;50573;51.512;5.386;2022-09-03T23:00:53;101204.44;;;18.35;73.18
64243;BME280;50573;51.512;5.386;2022-09-03T23:11:04;101214.28;;;18.26;73.69
64243;BME280;50573;51.512;5.386;2022-09-03T23:21:17;101207.69;;;18.15;74.64
64243;BME280;50573;51.512;5.386;2022-09-03T23:31:24;101212.09;;;18.14;77.34
64243;BME280;50573;51.512;5.386;2022-09-03T23:41:37;101225.13;;;18.16;79.78
64243;BME280;50573;51.512;5.386;2022-09-03T23:51:55;101223.50;;;18.12;79.96
